Terminal Aerodrome Forecast
Issued by NWS

Home | Current Version | Previous Version | Graphics & Text | Print | Product List | Glossary On
Versions: 1 2 3 4 5 6 7 8 9 10 11 12 13 14 15
000
FTUS43 KUNR 180520
TAFGCC
TAF
KGCC 180520Z 1806/1906 24011G21KT P6SM OVC250
     FM180800 28011KT P6SM OVC250 WS020/33040KT
     FM181100 31010KT P6SM FEW250
     FM181900 19009KT P6SM FEW250=

USA.gov is the U.S. government's official web portal to all federal, state and local government web resources and services.